Time;durP1;ratioP1;P1;durP2;ratioP2;P2;SDS_P1;SDS_P2;PMS_P1;PMS_P2;Temp;Humidity;BMP_temperature;BMP_pressure;BME280_temperature;BME280_humidity;BME280_pressure;Samples;Min_cycle;Max_cycle;Signal;HPM_P1;HPM_P2
2022/10/17 00:02:16;;;;;;;18.95;12.20;;;;;;;4.22;70.41;102190.66;1755805;80;21083;-52
2022/10/17 00:04:44;;;;;;;14.35;5.60;;;;;;;4.20;70.40;102191.15;1751343;80;21018;-49
2022/10/17 00:07:10;;;;;;;18.65;13.08;;;;;;;4.15;70.27;102192.13;1746095;80;21039;-50
2022/10/17 00:09:43;;;;;;;12.85;6.05;;;;;;;4.06;70.23;102195.82;1747541;80;21062;-50
2022/10/17 00:12:10;;;;;;;23.70;13.25;;;;;;;3.95;70.30;102199.12;1755427;80;21523;-50
2022/10/17 00:14:36;;;;;;;12.20;6.35;;;;;;;3.83;70.10;102197.66;1743485;80;21510;-49
2022/10/17 00:17:04;;;;;;;20.50;13.43;;;;;;;3.74;70.04;102199.17;1761915;80;21404;-49
2022/10/17 00:19:31;;;;;;;13.35;6.35;;;;;;;3.75;69.89;102207.38;1729030;80;21072;-49
2022/10/17 00:21:57;;;;;;;16.17;7.70;;;;;;;3.70;69.83;102208.35;1756893;80;21122;-48
2022/10/17 00:24:25;;;;;;;16.12;7.25;;;;;;;3.63;69.97;102211.98;1748973;80;21244;-49
2022/10/17 00:26:51;;;;;;;18.32;12.65;;;;;;;3.56;70.15;102206.48;1756778;80;21050;-49
2022/10/17 00:29:20;;;;;;;14.43;7.35;;;;;;;3.50;70.27;102206.17;1756145;80;21061;-50
2022/10/17 00:31:48;;;;;;;12.25;6.30;;;;;;;3.47;70.21;102215.34;1742860;80;21499;-49
2022/10/17 00:34:15;;;;;;;30.02;6.92;;;;;;;3.40;70.20;102212.47;1747153;80;21094;-49
2022/10/17 00:36:42;;;;;;;14.20;7.47;;;;;;;3.41;70.19;102211.56;1750141;80;21236;-50
2022/10/17 00:39:08;;;;;;;20.15;13.60;;;;;;;3.47;70.06;102214.05;1743038;80;21063;-49
2022/10/17 00:41:36;;;;;;;20.95;7.67;;;;;;;3.49;69.90;102213.56;1742927;80;21111;-49
2022/10/17 00:44:32;;;;;;;21.73;14.75;;;;;;;3.47;70.04;102215.34;1746288;80;21408;-50
2022/10/17 00:47:05;;;;;;;13.03;6.20;;;;;;;3.46;70.15;102217.55;1749124;80;21135;-49
2022/10/17 00:49:34;;;;;;;12.53;5.15;;;;;;;3.43;70.07;102219.34;1764782;80;21200;-49
2022/10/17 00:52:04;;;;;;;20.43;13.58;;;;;;;3.38;69.90;102219.87;1755004;80;21048;-50
2022/10/17 00:54:35;;;;;;;11.57;5.75;;;;;;;3.32;69.90;102224.78;1760668;81;21474;-50
2022/10/17 00:57:03;;;;;;;14.38;5.75;;;;;;;3.33;69.82;102221.30;1742139;81;21051;-50
2022/10/17 00:59:29;;;;;;;18.62;13.38;;;;;;;3.37;69.65;102220.33;1739434;81;21106;-50
2022/10/17 01:02:04;;;;;;;15.25;5.85;;;;;;;3.41;69.51;102218.06;1704136;83;21146;-49
2022/10/17 01:04:32;;;;;;;14.33;7.00;;;;;;;3.38;69.48;102222.48;1750103;81;21049;-50
2022/10/17 01:06:58;;;;;;;10.72;5.55;;;;;;;3.31;69.62;102223.92;1750321;81;21131;-51
2022/10/17 01:09:26;;;;;;;13.32;7.05;;;;;;;3.27;69.73;102217.05;1739683;81;21590;-49
2022/10/17 01:12:24;;;;;;;20.55;13.65;;;;;;;3.24;69.74;102214.96;1745977;81;21622;-49
2022/10/17 01:15:24;;;;;;;17.75;7.17;;;;;;;3.22;69.87;102219.34;1739042;81;21229;-50
2022/10/17 01:18:14;;;;;;;15.98;7.10;;;;;;;3.23;69.72;102230.14;1738574;81;21109;-49
2022/10/17 01:21:16;;;;;;;16.90;5.92;;;;;;;3.27;69.69;102234.42;1746094;81;21109;-49
2022/10/17 01:24:03;;;;;;;12.58;7.85;;;;;;;3.26;69.71;102231.39;1734380;81;21104;-49
2022/10/17 01:26:41;;;;;;;12.50;6.17;;;;;;;3.22;69.96;102236.25;1750695;81;21134;-49
2022/10/17 01:29:25;;;;;;;12.65;7.45;;;;;;;3.18;70.06;102237.19;1744900;81;21248;-51
2022/10/17 01:32:00;;;;;;;17.30;7.22;;;;;;;3.16;70.16;102225.08;1729673;81;21131;-50
2022/10/17 01:34:35;;;;;;;11.05;5.35;;;;;;;3.15;70.23;102231.16;1736340;81;21104;-50
2022/10/17 01:37:09;;;;;;;10.53;5.90;;;;;;;3.13;70.19;102224.30;1734559;81;21621;-51
2022/10/17 01:39:48;;;;;;;9.98;5.30;;;;;;;3.12;70.04;102218.66;1729440;81;21546;-50
2022/10/17 01:42:28;;;;;;;11.88;5.15;;;;;;;3.15;70.05;102220.76;1753264;81;21922;-49
2022/10/17 01:45:15;;;;;;;12.13;6.03;;;;;;;3.14;70.09;102224.69;1759894;81;21088;-49
2022/10/17 01:47:42;;;;;;;10.40;5.67;;;;;;;3.09;70.44;102223.50;1752973;81;21016;-49
2022/10/17 01:50:25;;;;;;;16.82;12.47;;;;;;;3.01;70.68;102213.68;1756063;81;21051;-50
2022/10/17 01:53:02;;;;;;;13.05;5.47;;;;;;;2.95;70.87;102207.28;1741848;80;21052;-50
2022/10/17 01:55:38;;;;;;;14.28;7.40;;;;;;;2.89;70.94;102206.97;1732194;80;21990;-51
2022/10/17 01:58:21;;;;;;;11.97;6.17;;;;;;;2.86;71.05;102197.92;1763098;80;21043;-50
2022/10/17 02:00:48;;;;;;;13.13;6.47;;;;;;;2.94;71.01;102202.95;1753839;80;21560;-50
2022/10/17 02:03:18;;;;;;;11.68;6.03;;;;;;;2.95;71.15;102202.08;1753225;80;20924;-50
2022/10/17 02:05:45;;;;;;;15.95;6.97;;;;;;;2.95;71.42;102198.19;1751356;80;21086;-49
2022/10/17 02:08:12;;;;;;;14.80;6.95;;;;;;;2.93;71.53;102198.66;1743112;80;21139;-49
2022/10/17 02:10:57;;;;;;;14.40;7.17;;;;;;;2.93;71.77;102193.01;1755570;80;21056;-49
2022/10/17 02:13:55;;;;;;;12.70;6.65;;;;;;;2.97;71.92;102188.15;1748105;80;21491;-49
2022/10/17 02:16:30;;;;;;;9.98;5.55;;;;;;;3.06;71.99;102181.94;1762170;80;21062;-50
2022/10/17 02:19:39;;;;;;;14.10;6.12;;;;;;;3.16;72.10;102186.48;1764021;80;21050;-49
2022/10/17 02:22:38;;;;;;;13.53;5.40;;;;;;;3.19;72.26;102192.09;1754451;80;21141;-50
2022/10/17 02:25:23;;;;;;;11.97;5.55;;;;;;;3.18;72.38;102187.34;1756116;80;21051;-51
2022/10/17 02:28:17;;;;;;;11.43;5.45;;;;;;;3.14;72.36;102185.24;1760560;80;21403;-51
2022/10/17 02:31:15;;;;;;;12.82;5.60;;;;;;;3.12;72.26;102192.65;1752731;80;21057;-49
2022/10/17 02:33:53;;;;;;;11.73;5.12;;;;;;;3.15;72.01;102195.20;1747743;80;21661;-50
2022/10/17 02:36:24;;;;;;;10.53;5.22;;;;;;;3.20;71.81;102195.95;1754776;80;21716;-50
2022/10/17 02:38:51;;;;;;;16.05;11.35;;;;;;;3.21;71.84;102197.69;1693607;82;21014;-50
2022/10/17 02:41:18;;;;;;;10.38;5.40;;;;;;;3.16;71.86;102195.17;1762007;80;21062;-51
2022/10/17 02:43:46;;;;;;;13.58;4.90;;;;;;;3.15;72.00;102197.34;1753132;80;21054;-50
2022/10/17 02:46:19;;;;;;;9.73;4.75;;;;;;;3.12;71.89;102196.55;1746072;80;21290;-50
2022/10/17 02:49:04;;;;;;;11.25;4.78;;;;;;;3.07;71.88;102201.84;1751978;80;21188;-50
2022/10/17 02:51:53;;;;;;;12.07;4.75;;;;;;;3.12;71.73;102199.16;1753754;80;21070;-49
2022/10/17 02:54:34;;;;;;;8.18;4.12;;;;;;;3.18;71.50;102200.77;1742640;80;21038;-49
2022/10/17 02:57:13;;;;;;;10.03;4.67;;;;;;;3.19;71.53;102195.53;1764022;80;21545;-49
2022/10/17 02:59:40;;;;;;;12.35;4.47;;;;;;;3.18;71.54;102189.94;1771294;80;20995;-49
2022/10/17 03:02:08;;;;;;;15.88;10.40;;;;;;;3.13;71.42;102186.58;1777514;80;21244;-49
2022/10/17 03:04:36;;;;;;;15.10;5.28;;;;;;;3.08;71.44;102185.81;1734478;80;20992;-50
2022/10/17 03:07:02;;;;;;;8.40;4.50;;;;;;;3.03;71.37;102180.69;1751099;80;21072;-51
2022/10/17 03:09:29;;;;;;;14.35;10.38;;;;;;;3.06;71.30;102191.46;1744579;80;21046;-51
2022/10/17 03:11:58;;;;;;;10.03;4.15;;;;;;;3.10;71.36;102195.28;1751811;80;21075;-49
2022/10/17 03:14:25;;;;;;;17.42;10.60;;;;;;;3.08;71.53;102191.86;1750300;79;21211;-49
2022/10/17 03:16:53;;;;;;;10.80;4.75;;;;;;;3.05;71.67;102189.31;1754415;80;21003;-49
2022/10/17 03:19:19;;;;;;;11.10;5.40;;;;;;;3.05;71.86;102193.22;1768556;80;21030;-50
2022/10/17 03:21:47;;;;;;;11.28;5.12;;;;;;;3.07;72.24;102199.69;1760080;80;21062;-50
2022/10/17 03:24:15;;;;;;;18.00;10.85;;;;;;;3.18;72.39;102204.67;1759959;80;21696;-50
2022/10/17 03:26:41;;;;;;;22.67;6.15;;;;;;;3.29;72.21;102210.06;1755276;80;22137;-50
2022/10/17 03:29:09;;;;;;;16.00;10.45;;;;;;;3.37;72.08;102222.09;1768911;80;21032;-50
2022/10/17 03:31:37;;;;;;;8.65;3.72;;;;;;;3.37;71.99;102224.23;1773580;80;21066;-50
2022/10/17 03:34:05;;;;;;;15.68;10.20;;;;;;;3.35;72.05;102224.72;1749371;80;21533;-50
2022/10/17 03:36:32;;;;;;;11.73;5.10;;;;;;;3.33;72.17;102232.55;1777044;80;21045;-49
2022/10/17 03:38:58;;;;;;;17.55;6.62;;;;;;;3.32;72.03;102228.68;1777415;80;22089;-49
2022/10/17 03:41:26;;;;;;;10.65;5.67;;;;;;;3.38;71.82;102234.19;1750931;80;21038;-48
2022/10/17 03:43:53;;;;;;;13.10;9.50;;;;;;;3.41;71.64;102234.13;1771299;80;21098;-50
2022/10/17 03:46:20;;;;;;;10.58;4.95;;;;;;;3.39;71.50;102241.97;1763313;80;21047;-49
2022/10/17 03:48:47;;;;;;;10.63;4.97;;;;;;;3.34;71.46;102247.71;1758504;80;21042;-49
2022/10/17 03:51:14;;;;;;;16.05;10.88;;;;;;;3.29;71.62;102254.75;1780882;80;21589;-49
2022/10/17 03:53:42;;;;;;;11.60;4.70;;;;;;;3.25;71.91;102253.96;1780719;80;21079;-50
2022/10/17 03:56:16;;;;;;;15.23;10.30;;;;;;;3.32;72.37;102261.20;1771236;80;21078;-49
2022/10/17 03:58:43;;;;;;;7.97;4.12;;;;;;;3.47;72.75;102263.50;1751299;80;21020;-49
2022/10/17 04:01:12;;;;;;;12.93;4.62;;;;;;;3.68;73.12;102274.34;1755991;80;21110;-50
2022/10/17 04:03:39;;;;;;;15.18;10.05;;;;;;;3.81;73.39;102270.59;1776006;80;21511;-49
2022/10/17 04:06:07;;;;;;;8.03;3.83;;;;;;;3.91;73.42;102282.53;1777512;79;22260;-50
2022/10/17 04:08:34;;;;;;;8.93;4.28;;;;;;;3.99;73.12;102283.67;1772343;80;21063;-49
2022/10/17 04:11:05;;;;;;;14.13;5.17;;;;;;;4.01;72.54;102287.55;1760000;80;21058;-49
2022/10/17 04:13:34;;;;;;;13.22;9.85;;;;;;;4.00;71.80;102288.43;1758655;80;21077;-49
2022/10/17 04:16:05;;;;;;;8.85;4.72;;;;;;;3.95;71.36;102292.88;1765070;80;21000;-49
2022/10/17 04:18:32;;;;;;;12.93;8.78;;;;;;;3.90;71.27;102295.16;1757123;80;21046;-49
2022/10/17 04:21:03;;;;;;;11.22;4.87;;;;;;;3.80;71.14;102289.73;1759613;80;21064;-49
2022/10/17 04:23:32;;;;;;;10.45;4.67;;;;;;;3.72;71.19;102287.28;1760237;80;20988;-50
2022/10/17 04:26:00;;;;;;;10.60;5.90;;;;;;;3.62;71.09;102283.61;1754701;80;21054;-49
2022/10/17 04:28:27;;;;;;;12.85;4.60;;;;;;;3.54;71.21;102285.90;1759217;80;21255;-49
2022/10/17 04:31:05;;;;;;;13.08;9.88;;;;;;;3.53;71.23;102283.33;1712723;82;21015;-49
2022/10/17 04:33:33;;;;;;;10.55;5.05;;;;;;;3.54;70.99;102282.00;1752802;80;21069;-50
2022/10/17 04:36:06;;;;;;;16.65;11.15;;;;;;;3.50;70.93;102275.15;1762802;80;21046;-49
2022/10/17 04:38:33;;;;;;;12.28;4.40;;;;;;;3.47;71.06;102280.87;1735833;82;21562;-50
2022/10/17 04:41:03;;;;;;;15.95;10.55;;;;;;;3.43;71.23;102280.50;1750686;80;21197;-50
2022/10/17 04:43:35;;;;;;;9.38;5.03;;;;;;;3.36;71.34;102273.25;1780667;80;21125;-50
2022/10/17 04:46:06;;;;;;;11.48;4.62;;;;;;;3.33;71.45;102270.28;1772779;80;21089;-50
2022/10/17 04:48:33;;;;;;;9.30;3.90;;;;;;;3.41;71.68;102267.51;1762502;80;21054;-49
2022/10/17 04:51:02;;;;;;;16.97;9.68;;;;;;;3.56;72.02;102260.30;1769028;80;21106;-54
2022/10/17 04:53:34;;;;;;;9.75;4.10;;;;;;;3.68;72.18;102256.13;1776210;80;21136;-51
2022/10/17 04:56:01;;;;;;;14.20;5.35;;;;;;;3.73;72.24;102259.48;1751668;80;21058;-54
2022/10/17 04:58:29;;;;;;;15.13;10.72;;;;;;;3.71;72.16;102262.57;1747042;80;20984;-50
2022/10/17 05:00:56;;;;;;;19.50;11.78;;;;;;;3.68;72.06;102267.42;1767923;80;21082;-51
2022/10/17 05:03:24;;;;;;;14.18;6.65;;;;;;;3.68;72.22;102261.33;1771691;80;21521;-53
2022/10/17 05:05:51;;;;;;;10.85;5.58;;;;;;;3.72;72.35;102260.39;1751256;80;21138;-50
2022/10/17 05:08:19;;;;;;;17.40;12.20;;;;;;;3.85;72.38;102263.57;1766597;80;21067;-54
2022/10/17 05:10:46;;;;;;;12.47;6.22;;;;;;;3.98;72.32;102269.38;1765545;80;21074;-50
2022/10/17 05:13:14;;;;;;;19.77;11.88;;;;;;;4.07;72.30;102270.49;1755348;80;21037;-54
2022/10/17 05:15:42;;;;;;;12.70;6.40;;;;;;;4.11;72.29;102269.52;1763827;80;21537;-51
2022/10/17 05:18:11;;;;;;;9.80;5.72;;;;;;;4.15;72.27;102273.75;1771391;80;21826;-50
2022/10/17 05:20:37;;;;;;;22.65;12.78;;;;;;;4.18;72.20;102272.38;1763683;80;21028;-52
2022/10/17 05:23:05;;;;;;;14.03;6.12;;;;;;;4.23;72.05;102274.89;1771159;80;21047;-52
2022/10/17 05:25:34;;;;;;;15.45;11.80;;;;;;;4.34;71.72;102282.45;1746847;80;21103;-52
2022/10/17 05:28:01;;;;;;;18.05;7.70;;;;;;;4.45;71.55;102283.05;1762630;80;21097;-50
2022/10/17 05:30:28;;;;;;;16.40;11.68;;;;;;;4.53;71.34;102279.82;1766040;80;21234;-50
2022/10/17 05:32:57;;;;;;;11.65;5.58;;;;;;;4.55;71.20;102275.42;1768936;80;20995;-51
2022/10/17 05:35:23;;;;;;;15.40;6.45;;;;;;;4.60;71.13;102270.95;1772509;80;21117;-50
2022/10/17 05:37:50;;;;;;;20.75;14.10;;;;;;;4.64;70.97;102274.36;1735550;80;22242;-50
2022/10/17 05:40:17;;;;;;;20.48;12.78;;;;;;;4.63;70.83;102268.27;1750595;80;21521;-50
2022/10/17 05:42:47;;;;;;;14.35;6.62;;;;;;;4.70;70.62;102268.13;1766954;80;21138;-50
2022/10/17 05:45:15;;;;;;;20.65;12.85;;;;;;;4.82;70.26;102271.72;1769555;80;21028;-50
2022/10/17 05:47:42;;;;;;;16.00;11.78;;;;;;;4.92;70.09;102270.58;1759101;80;21033;-51
2022/10/17 05:50:10;;;;;;;18.27;11.97;;;;;;;5.02;70.15;102273.81;1762498;80;21055;-50
2022/10/17 05:52:39;;;;;;;12.98;7.08;;;;;;;5.11;70.07;102289.23;1770516;80;21050;-50
2022/10/17 05:55:08;;;;;;;16.40;12.00;;;;;;;5.19;69.89;102279.88;1771017;80;21128;-50
2022/10/17 05:57:36;;;;;;;17.65;10.68;;;;;;;5.27;69.79;102276.61;1735521;82;21055;-50
2022/10/17 06:00:05;;;;;;;15.50;10.95;;;;;;;5.36;69.58;102276.38;1736662;80;21078;-50
2022/10/17 06:02:34;;;;;;;42.13;21.27;;;;;;;5.50;69.16;102268.60;1761269;80;21564;-50
2022/10/17 06:05:01;;;;;;;11.00;4.95;;;;;;;5.66;68.83;102279.45;1754116;80;21475;-51
2022/10/17 06:07:29;;;;;;;17.15;11.28;;;;;;;5.74;68.57;102288.77;1761436;80;21028;-50
2022/10/17 06:09:57;;;;;;;20.15;6.53;;;;;;;5.82;68.24;102291.17;1772429;80;21046;-51
2022/10/17 06:12:24;;;;;;;59.77;18.70;;;;;;;5.91;68.13;102292.19;1770360;80;21059;-50
2022/10/17 06:14:51;;;;;;;30.37;12.13;;;;;;;5.99;67.87;102288.54;1772413;80;21085;-50
2022/10/17 06:17:19;;;;;;;20.05;10.70;;;;;;;6.10;67.71;102297.77;1765394;80;21055;-51
2022/10/17 06:19:46;;;;;;;21.02;11.85;;;;;;;6.26;67.33;102299.90;1732658;82;21534;-51
2022/10/17 06:22:14;;;;;;;20.75;11.00;;;;;;;6.39;67.12;102300.34;1772753;80;21105;-49
2022/10/17 06:24:41;;;;;;;17.27;10.90;;;;;;;6.50;67.01;102293.87;1770592;80;21066;-49
2022/10/17 06:27:08;;;;;;;9.50;4.85;;;;;;;6.61;66.89;102292.23;1765737;80;21110;-48
2022/10/17 06:29:37;;;;;;;16.05;10.20;;;;;;;6.72;66.77;102287.09;1772895;80;20995;-50
2022/10/17 06:32:05;;;;;;;15.30;9.80;;;;;;;6.81;66.86;102284.18;1769545;80;21300;-49
2022/10/17 06:34:32;;;;;;;14.30;9.10;;;;;;;6.94;66.76;102291.14;1765772;80;21054;-49
2022/10/17 06:37:01;;;;;;;13.43;8.30;;;;;;;7.12;66.33;102296.20;1745633;80;21046;-49
2022/10/17 06:39:32;;;;;;;13.18;8.60;;;;;;;7.28;65.76;102292.14;1750611;80;21059;-49
2022/10/17 06:42:00;;;;;;;15.10;8.28;;;;;;;7.40;65.19;102298.70;1754222;80;21527;-48
2022/10/17 06:44:30;;;;;;;18.32;9.53;;;;;;;7.54;64.36;102308.21;1770138;80;21153;-49
2022/10/17 06:47:15;;;;;;;;;;;;;;;7.66;63.65;102315.23;1773466;80;21046;-49
2022/10/17 06:49:43;;;;;;;20.15;9.50;;;;;;;7.76;63.05;102326.61;1769803;80;21287;-49
2022/10/17 06:52:20;;;;;;;17.30;8.80;;;;;;;7.83;62.49;102320.69;1758058;80;21086;-49
2022/10/17 06:55:07;;;;;;;12.13;4.05;;;;;;;7.92;62.40;102320.36;1740733;81;21256;-49
2022/10/17 06:57:41;;;;;;;15.13;8.15;;;;;;;8.07;62.26;102327.22;1728904;81;21116;-49
2022/10/17 07:00:27;;;;;;;17.12;4.78;;;;;;;8.27;61.92;102323.83;1765906;81;21027;-49
2022/10/17 07:02:55;;;;;;;16.70;8.28;;;;;;;8.45;61.10;102326.22;1765835;81;21016;-49
2022/10/17 07:05:23;;;;;;;10.58;7.53;;;;;;;8.57;60.16;102320.47;1765812;81;21086;-49
2022/10/17 07:07:50;;;;;;;12.33;7.45;;;;;;;8.68;59.69;102310.86;1742303;81;21541;-49
2022/10/17 07:10:17;;;;;;;10.93;6.33;;;;;;;8.77;59.52;102303.06;1738497;81;21208;-49
2022/10/17 07:12:45;;;;;;;11.75;6.45;;;;;;;8.87;59.11;102309.62;1753921;81;21069;-48
2022/10/17 07:15:11;;;;;;;19.92;7.33;;;;;;;8.95;58.52;102311.47;1762206;81;21094;-48
2022/10/17 07:17:40;;;;;;;10.65;6.42;;;;;;;9.05;58.86;102306.22;1760329;81;21250;-49
2022/10/17 07:20:09;;;;;;;14.78;7.15;;;;;;;9.17;58.68;102309.24;1765217;81;21090;-49
2022/10/17 07:22:36;;;;;;;27.30;8.33;;;;;;;9.25;58.53;102307.14;1754694;81;21133;-49
2022/10/17 07:25:06;;;;;;;12.73;6.75;;;;;;;9.33;58.40;102306.34;1750806;81;21513;-48
2022/10/17 07:27:34;;;;;;;17.50;7.20;;;;;;;9.44;57.83;102296.66;1743084;81;21110;-47
2022/10/17 07:30:01;;;;;;;10.68;6.12;;;;;;;9.55;57.35;102298.36;1747731;81;21444;-49
2022/10/17 07:32:36;;;;;;;12.82;6.25;;;;;;;9.65;57.17;102306.21;1749087;81;21082;-49
2022/10/17 07:35:04;;;;;;;10.53;5.72;;;;;;;9.76;56.77;102311.44;1766368;81;21242;-48
2022/10/17 07:37:32;;;;;;;11.12;6.15;;;;;;;9.88;56.10;102321.86;1765560;80;20993;-47
2022/10/17 07:40:00;;;;;;;9.93;6.17;;;;;;;9.97;55.29;102317.03;1689235;83;21483;-48
2022/10/17 07:42:27;;;;;;;9.73;5.60;;;;;;;10.09;54.71;102318.23;1760130;81;21008;-48
2022/10/17 07:44:54;;;;;;;11.43;5.70;;;;;;;10.20;53.87;102313.32;1765011;81;21265;-48
2022/10/17 07:47:22;;;;;;;14.45;7.83;;;;;;;10.31;52.63;102317.22;1748362;80;21309;-47
2022/10/17 07:49:50;;;;;;;20.55;11.18;;;;;;;10.42;53.32;102309.66;1754363;81;21040;-47
2022/10/17 07:52:16;;;;;;;13.50;9.45;;;;;;;10.52;53.77;102296.91;1746678;81;21020;-48
2022/10/17 07:54:43;;;;;;;14.98;7.30;;;;;;;10.61;53.53;102297.78;1756170;80;21108;-48
2022/10/17 07:57:11;;;;;;;10.48;6.42;;;;;;;10.70;53.38;102288.09;1745407;82;21601;-48
2022/10/17 07:59:39;;;;;;;10.20;5.58;;;;;;;10.80;52.68;102284.55;1742862;82;21162;-48
2022/10/17 08:02:07;;;;;;;10.15;5.83;;;;;;;10.87;52.68;102288.56;1747186;82;21054;-48
2022/10/17 08:04:35;;;;;;;12.85;5.30;;;;;;;10.96;51.95;102287.23;1747256;82;21526;-48
2022/10/17 08:07:03;;;;;;;11.08;5.75;;;;;;;11.05;51.90;102291.20;1747551;82;21090;-48
2022/10/17 08:09:30;;;;;;;16.00;7.17;;;;;;;11.13;51.87;102292.98;1726306;82;21054;-48
2022/10/17 08:11:58;;;;;;;15.25;6.12;;;;;;;11.22;51.70;102287.21;1734176;82;21134;-48
2022/10/17 08:14:25;;;;;;;10.63;5.50;;;;;;;11.32;51.14;102283.16;1745828;80;21046;-47
2022/10/17 08:16:54;;;;;;;11.15;6.10;;;;;;;11.43;50.69;102277.78;1746441;82;21054;-48
2022/10/17 08:19:20;;;;;;;11.03;5.25;;;;;;;11.52;49.96;102281.25;1740161;82;21069;-48
2022/10/17 08:21:49;;;;;;;11.75;5.25;;;;;;;11.59;49.63;102282.62;1745731;82;21015;-48
2022/10/17 08:24:15;;;;;;;8.38;5.10;;;;;;;11.68;49.75;102282.58;1736511;82;21234;-48
2022/10/17 08:26:42;;;;;;;12.20;5.67;;;;;;;11.78;49.66;102284.25;1747408;82;21122;-48
2022/10/17 08:29:14;;;;;;;10.32;5.20;;;;;;;11.87;49.60;102287.23;1722031;82;21089;-48
2022/10/17 08:31:40;;;;;;;8.98;5.20;;;;;;;11.96;49.37;102281.95;1726589;82;21102;-49
2022/10/17 08:34:07;;;;;;;14.05;5.10;;;;;;;12.04;48.96;102283.70;1738641;82;21050;-48
2022/10/17 08:36:34;;;;;;;11.93;5.62;;;;;;;12.15;47.88;102276.96;1747361;82;21193;-48
2022/10/17 08:39:00;;;;;;;10.90;5.20;;;;;;;12.25;47.62;102278.14;1747734;82;21050;-48
2022/10/17 08:41:43;;;;;;;8.28;4.90;;;;;;;12.33;47.88;102275.91;1747758;80;22270;-48
2022/10/17 08:44:41;;;;;;;13.38;5.62;;;;;;;12.40;47.60;102273.77;1746615;80;21047;-47
2022/10/17 08:47:18;;;;;;;12.68;5.95;;;;;;;12.51;47.83;102265.22;1748098;82;21539;-47
2022/10/17 08:49:51;;;;;;;9.20;5.10;;;;;;;12.62;47.54;102265.45;1745160;81;21194;-47
2022/10/17 08:52:36;;;;;;;10.05;5.00;;;;;;;12.72;46.52;102267.92;1756616;80;21050;-48
2022/10/17 08:55:16;;;;;;;;;;;;;;;12.80;46.17;102265.69;1735083;80;21454;-47
2022/10/17 08:57:43;;;;;;;8.85;5.37;;;;;;;12.89;45.57;102252.39;1765475;80;20144;-48
2022/10/17 09:00:17;;;;;;;7.42;4.20;;;;;;;12.95;45.34;102249.87;1747973;80;21114;-48
2022/10/17 09:03:15;;;;;;;9.90;4.47;;;;;;;13.00;45.13;102241.19;1768728;80;21220;-48
2022/10/17 09:06:06;;;;;;;10.23;4.47;;;;;;;13.09;45.51;102236.65;1707192;82;21051;-48
2022/10/17 09:08:56;;;;;;;13.78;4.60;;;;;;;13.21;45.14;102233.72;1737109;80;21604;-48
2022/10/17 09:11:46;;;;;;;9.25;4.35;;;;;;;13.29;45.08;102233.26;1771642;80;21071;-50
2022/10/17 09:15:10;;;;;;;9.05;3.90;;;;;;;13.39;45.17;102231.77;1755561;80;21058;-49
2022/10/17 09:18:02;;;;;;;9.10;4.60;;;;;;;13.51;45.03;102231.47;1759974;80;21070;-49
2022/10/17 09:20:45;;;;;;;17.30;5.90;;;;;;;13.63;43.18;102232.49;1770932;80;21043;-48
2022/10/17 09:23:22;;;;;;;9.30;4.30;;;;;;;13.73;43.69;102234.92;1743185;80;21527;-48
2022/10/17 09:25:52;;;;;;;7.80;4.08;;;;;;;13.81;43.86;102245.86;1773388;80;21078;-48
2022/10/17 09:28:31;;;;;;;17.67;4.90;;;;;;;13.91;42.17;102248.30;1763454;80;21118;-48
2022/10/17 09:31:03;;;;;;;8.15;4.22;;;;;;;13.99;42.07;102244.33;1772524;80;21134;-48
2022/10/17 09:33:35;;;;;;;9.80;4.20;;;;;;;14.06;41.49;102240.32;1751312;80;21553;-48
2022/10/17 09:36:04;;;;;;;8.08;4.53;;;;;;;14.16;40.91;102252.00;1748704;80;21079;-48
2022/10/17 09:38:41;;;;;;;9.70;3.83;;;;;;;14.25;40.47;102261.13;1771514;80;21577;-49
2022/10/17 09:41:23;;;;;;;7.00;3.90;;;;;;;14.28;39.82;102256.48;1760748;80;21553;-48
2022/10/17 09:43:53;;;;;;;7.03;4.17;;;;;;;14.29;39.13;102253.37;1759800;80;21751;-49
2022/10/17 09:46:27;;;;;;;8.13;3.87;;;;;;;14.30;39.69;102247.11;1747427;80;21066;-48
2022/10/17 09:49:05;;;;;;;8.13;4.10;;;;;;;14.34;39.67;102245.11;1770885;80;21617;-49
2022/10/17 09:51:32;;;;;;;11.03;4.37;;;;;;;14.42;39.88;102240.16;1759516;80;21165;-47
2022/10/17 09:54:03;;;;;;;8.73;4.25;;;;;;;14.54;39.66;102237.16;1772625;80;21094;-47
2022/10/17 09:56:30;;;;;;;7.47;3.80;;;;;;;14.63;39.62;102236.58;1775554;80;21381;-48
2022/10/17 09:58:57;;;;;;;7.60;3.65;;;;;;;14.73;39.94;102231.52;1778426;80;21666;-48
2022/10/17 10:01:27;;;;;;;9.08;3.87;;;;;;;14.85;39.42;102227.52;1777196;80;21061;-47
2022/10/17 10:04:15;;;;;;;6.62;3.85;;;;;;;14.94;39.68;102226.52;1778367;80;21903;-47
2022/10/17 10:07:05;;;;;;;8.68;4.22;;;;;;;15.03;39.29;102228.06;1756999;80;21005;-50
2022/10/17 10:09:33;;;;;;;9.38;5.35;;;;;;;15.14;39.16;102232.59;1769088;80;21160;-48
2022/10/17 10:12:05;;;;;;;6.85;4.33;;;;;;;15.22;39.22;102221.47;1742542;80;21062;-48
2022/10/17 10:14:35;;;;;;;8.58;4.33;;;;;;;15.31;39.30;102213.33;1695243;82;21056;-47
2022/10/17 10:17:07;;;;;;;9.95;4.53;;;;;;;15.40;39.17;102205.57;1780494;80;21503;-48
2022/10/17 10:19:37;;;;;;;9.95;4.95;;;;;;;15.49;38.33;102207.20;1778863;80;21034;-48
2022/10/17 10:22:15;;;;;;;12.30;4.20;;;;;;;15.53;38.81;102204.68;1780652;80;21534;-48
2022/10/17 10:24:41;;;;;;;12.88;4.17;;;;;;;15.63;38.84;102207.52;1772842;80;21054;-48
2022/10/17 10:27:17;;;;;;;7.28;4.10;;;;;;;15.71;38.08;102209.98;1779725;80;21007;-48
2022/10/17 10:29:51;;;;;;;9.28;4.50;;;;;;;15.80;38.13;102204.50;1781048;80;20995;-48
2022/10/17 10:32:27;;;;;;;8.90;4.50;;;;;;;15.86;38.04;102196.10;1777986;80;21058;-48
2022/10/17 10:35:06;;;;;;;;;;;;;;;15.94;37.01;102203.02;1782101;80;21318;-49
2022/10/17 10:37:37;;;;;;;9.35;4.60;;;;;;;15.98;36.95;102199.66;1777541;80;20125;-50
2022/10/17 10:40:08;;;;;;;11.10;4.37;;;;;;;15.97;36.82;102201.47;1762078;80;21069;-48
2022/10/17 10:42:37;;;;;;;8.75;4.70;;;;;;;16.03;36.89;102213.92;1778850;80;21093;-49
2022/10/17 10:45:18;;;;;;;9.25;4.65;;;;;;;16.07;36.61;102202.09;1746202;80;21010;-49
2022/10/17 10:48:01;;;;;;;7.83;4.42;;;;;;;16.10;36.45;102201.39;1763617;80;21545;-49
2022/10/17 10:50:32;;;;;;;7.10;4.03;;;;;;;16.15;36.35;102198.39;1778454;80;21197;-48
2022/10/17 10:53:10;;;;;;;9.43;4.70;;;;;;;16.17;36.41;102192.48;1775296;80;21004;-47
2022/10/17 10:56:27;;;;;;;8.35;4.37;;;;;;;16.19;36.03;102197.22;1775292;80;21003;-47
2022/10/17 10:59:01;;;;;;;9.37;4.63;;;;;;;16.27;35.86;102214.76;1774851;80;21149;-47
2022/10/17 11:01:48;;;;;;;9.08;4.90;;;;;;;16.36;35.89;102210.55;1758547;80;21277;-48
2022/10/17 11:04:46;;;;;;;8.03;4.40;;;;;;;16.42;35.31;102210.07;1715795;80;22354;-48
2022/10/17 11:07:18;;;;;;;7.97;4.47;;;;;;;16.47;35.82;102213.22;1759759;80;21129;-48
2022/10/17 11:11:28;;;;;;;12.37;4.33;;;;;;;16.49;35.71;102207.80;1789617;79;22733;-49
2022/10/17 11:14:22;;;;;;;7.37;3.92;;;;;;;16.67;34.42;102206.87;1773137;80;21076;-51
2022/10/17 11:17:02;;;;;;;10.15;4.87;;;;;;;16.73;34.64;102202.42;1756037;80;21230;-49
2022/10/17 11:19:36;;;;;;;13.80;5.17;;;;;;;16.83;35.02;102202.56;1765085;80;21097;-49
2022/10/17 11:22:15;;;;;;;10.13;4.55;;;;;;;16.94;34.71;102200.41;1776968;80;21111;-49
2022/10/17 11:25:05;;;;;;;9.23;4.05;;;;;;;16.99;34.59;102185.78;1773541;80;21599;-49
2022/10/17 11:27:31;;;;;;;16.70;5.40;;;;;;;17.03;33.55;102184.59;1759099;80;21081;-48
2022/10/17 11:29:58;;;;;;;9.80;4.53;;;;;;;17.03;33.47;102185.92;1748625;80;21455;-49
2022/10/17 11:32:52;;;;;;;11.78;4.62;;;;;;;17.00;33.65;102188.81;1769954;80;21067;-48
2022/10/17 11:35:26;;;;;;;7.65;3.95;;;;;;;17.01;34.01;102177.69;1709994;80;21025;-48
2022/10/17 11:38:00;;;;;;;7.12;4.33;;;;;;;17.11;34.15;102175.98;1749204;80;21117;-48
2022/10/17 11:40:36;;;;;;;9.40;4.70;;;;;;;17.22;33.60;102175.98;1763543;80;21118;-48
2022/10/17 11:43:15;;;;;;;13.32;4.45;;;;;;;17.29;33.59;102166.19;1762511;80;21038;-49
2022/10/17 11:45:47;;;;;;;10.82;4.30;;;;;;;17.33;33.75;102167.62;1763121;80;21070;-50
2022/10/17 11:48:28;;;;;;;8.05;4.12;;;;;;;17.38;33.95;102165.44;1760620;80;21124;-48
2022/10/17 11:51:11;;;;;;;7.58;4.30;;;;;;;17.47;33.90;102154.06;1777492;80;21078;-48
2022/10/17 11:53:58;;;;;;;7.42;4.22;;;;;;;17.59;34.03;102154.88;1760565;80;21119;-48